Time;durP1;ratioP1;P1;durP2;ratioP2;P2;SDS_P1;SDS_P2;PMS_P1;PMS_P2;Temp;Humidity;BMP_temperature;BMP_pressure;BME280_temperature;BME280_humidity;BME280_pressure;Samples;Min_cycle;Max_cycle;Signal;HPM_P1;HPM_P2
2023/07/18 00:41:40;;;;;;;;;;;;;;;20.42;46.19;100388.28;1086501;54;19930;-80
2023/07/18 00:42:45;;;;;;;;;;;;;;;20.30;47.20;100394.50;1087087;54;19942;-81
2023/07/18 00:43:48;;;;;;;;;;;;;;;20.31;46.82;100399.72;1086990;54;19949;-79
2023/07/18 00:44:50;;;;;;;;;;;;;;;20.34;47.10;100393.06;1087099;54;19946;-80
2023/07/18 00:45:54;;;;;;;;;;;;;;;20.33;47.15;100397.66;1087069;54;19954;-79
2023/07/18 00:46:55;;;;;;;;;;;;;;;20.31;47.12;100397.00;1087969;39;20930;-79
2023/07/18 00:47:58;;;;;;;;;;;;;;;20.30;47.34;100398.06;1087150;47;19967;-79
2023/07/18 00:49:01;;;;;;;;;;;;;;;20.28;47.62;100392.00;1087242;47;19962;-81
2023/07/18 00:50:02;;;;;;;;;;;;;;;20.34;47.74;100395.78;1087217;54;19942;-80
2023/07/18 00:51:07;;;;;;;;;;;;;;;20.25;48.66;100397.81;1087457;54;19943;-79
2023/07/18 00:52:08;;;;;;;;;;;;;;;20.20;49.13;100394.88;1087422;54;19943;-80
2023/07/18 00:53:12;;;;;;;;;;;;;;;20.18;49.37;100396.94;1087439;54;19966;-80
2023/07/18 00:54:13;;;;;;;;;;;;;;;20.21;49.33;100396.56;1087451;54;19965;-81
2023/07/18 00:55:16;;;;;;;;;;;;;;;20.16;49.51;100399.00;1087165;47;19942;-80
2023/07/18 00:56:17;;;;;;;;;;;;;;;19.99;50.49;100393.06;1088682;39;20161;-79
2023/07/18 00:57:20;;;;;;;;;;;;;;;19.88;51.17;100397.16;1087067;47;19943;-80
2023/07/18 00:58:24;;;;;;;;;;;;;;;19.83;51.02;100400.44;1087188;54;19998;-79
2023/07/18 00:59:29;;;;;;;;;;;;;;;19.84;51.28;100398.56;1087146;47;19994;-79
2023/07/18 01:00:30;;;;;;;;;;;;;;;19.91;50.53;100396.78;1087185;54;19950;-80
2023/07/18 01:01:34;;;;;;;;;;;;;;;19.94;50.57;100399.06;1087425;54;19996;-80
2023/07/18 01:02:37;;;;;;;;;;;;;;;19.87;51.34;100396.34;1087220;47;19981;-81
2023/07/18 01:03:41;;;;;;;;;;;;;;;19.92;51.22;100393.84;1087217;54;19975;-80
2023/07/18 01:04:42;;;;;;;;;;;;;;;19.97;51.02;100398.69;1087278;54;19938;-79
2023/07/18 01:05:46;;;;;;;;;;;;;;;20.00;50.69;100386.59;1087092;47;20002;-80
2023/07/18 01:06:47;;;;;;;;;;;;;;;19.99;50.35;100379.47;1087115;54;19942;-80
2023/07/18 01:07:52;;;;;;;;;;;;;;;20.05;50.25;100374.09;1087117;47;19942;-81
2023/07/18 01:08:52;;;;;;;;;;;;;;;20.03;50.39;100389.75;1087261;54;19944;-80
2023/07/18 01:09:56;;;;;;;;;;;;;;;20.07;50.41;100384.78;1087298;54;19942;-80
2023/07/18 01:10:58;;;;;;;;;;;;;;;20.05;50.55;100387.66;1087411;54;19976;-80
2023/07/18 01:12:01;;;;;;;;;;;;;;;20.05;50.25;100379.53;1087131;47;19950;-81
2023/07/18 01:13:02;;;;;;;;;;;;;;;20.03;50.42;100381.59;1087185;47;19943;-80
2023/07/18 01:14:09;;;;;;;;;;;;;;;20.07;50.54;100391.03;1087208;54;19942;-80
2023/07/18 01:15:12;;;;;;;;;;;;;;;20.06;50.37;100383.94;1087456;54;19943;-80
2023/07/18 01:16:16;;;;;;;;;;;;;;;20.08;50.19;100389.16;1087133;47;19986;-80
2023/07/18 01:17:17;;;;;;;;;;;;;;;20.08;50.06;100389.16;1086976;54;19966;-80
2023/07/18 01:18:18;;;;;;;;;;;;;;;20.10;50.20;100385.22;1087164;54;19965;-80
2023/07/18 01:19:22;;;;;;;;;;;;;;;20.10;50.29;100378.94;1087396;54;19943;-81
2023/07/18 01:20:26;;;;;;;;;;;;;;;20.07;50.30;100380.19;1087428;54;20052;-81
2023/07/18 01:21:32;;;;;;;;;;;;;;;20.08;50.22;100389.16;1087105;47;19953;-81
2023/07/18 01:22:35;;;;;;;;;;;;;;;20.10;50.41;100384.38;1086783;47;19945;-81
2023/07/18 01:23:38;;;;;;;;;;;;;;;19.94;50.96;100396.34;1087169;54;19943;-80
2023/07/18 01:24:39;;;;;;;;;;;;;;;19.80;51.58;100393.53;1087133;47;19942;-81
2023/07/18 01:25:40;;;;;;;;;;;;;;;19.79;51.64;100393.72;1087119;46;20006;-81
2023/07/18 01:26:43;;;;;;;;;;;;;;;19.61;52.09;100396.94;1087150;54;20212;-81
2023/07/18 01:27:44;;;;;;;;;;;;;;;19.65;51.81;100390.06;1087148;54;19949;-80
2023/07/18 01:28:48;;;;;;;;;;;;;;;19.70;51.24;100395.75;1087083;47;19973;-81
2023/07/18 01:29:51;;;;;;;;;;;;;;;19.66;51.10;100394.44;1087160;47;19939;-80
2023/07/18 01:30:55;;;;;;;;;;;;;;;19.65;50.96;100390.06;1087253;54;19947;-80
2023/07/18 01:31:55;;;;;;;;;;;;;;;19.70;50.58;100392.19;1087328;54;19943;-80
2023/07/18 01:32:59;;;;;;;;;;;;;;;19.67;51.04;100388.00;1087208;47;19943;-80
2023/07/18 01:34:00;;;;;;;;;;;;;;;19.71;50.73;100392.00;1087181;54;19966;-80
2023/07/18 01:35:06;;;;;;;;;;;;;;;19.74;50.28;100382.63;1087112;47;19942;-79
2023/07/18 01:36:07;;;;;;;;;;;;;;;19.72;51.43;100384.69;1087259;54;19943;-81
2023/07/18 01:37:15;;;;;;;;;;;;;;;19.61;51.22;100380.66;1087421;54;19943;-80
2023/07/18 01:38:17;;;;;;;;;;;;;;;19.61;51.37;100391.50;1087498;54;19946;-80
2023/07/18 01:39:20;;;;;;;;;;;;;;;19.60;51.73;100379.81;1087108;47;19954;-79
2023/07/18 01:40:21;;;;;;;;;;;;;;;19.47;52.85;100385.13;1087088;47;19967;-80
2023/07/18 01:41:25;;;;;;;;;;;;;;;19.38;53.25;100381.69;1087116;46;19939;-82
2023/07/18 01:42:26;;;;;;;;;;;;;;;19.24;53.46;100383.44;1087091;54;19942;-80
2023/07/18 01:43:27;;;;;;;;;;;;;;;19.29;53.71;100383.72;1087422;54;19950;-81
2023/07/18 01:44:30;;;;;;;;;;;;;;;19.26;53.74;100383.28;1090170;39;20296;-80
2023/07/18 01:45:31;;;;;;;;;;;;;;;19.25;54.02;100387.84;1087065;54;19943;-80
2023/07/18 01:46:36;;;;;;;;;;;;;;;19.24;53.61;100380.75;1087292;47;19942;-81
2023/07/18 01:47:38;;;;;;;;;;;;;;;19.22;53.92;100376.56;1087323;47;19943;-80
2023/07/18 01:48:42;;;;;;;;;;;;;;;19.26;53.47;100375.16;1087164;47;19950;-80
2023/07/18 01:49:43;;;;;;;;;;;;;;;19.24;53.81;100375.31;1087014;54;19950;-80
2023/07/18 01:50:46;;;;;;;;;;;;;;;19.26;53.72;100378.69;1087399;54;19943;-79
2023/07/18 01:51:47;;;;;;;;;;;;;;;19.18;54.04;100376.94;1086952;47;19965;-78
2023/07/18 01:52:53;;;;;;;;;;;;;;;19.21;53.76;100370.31;1087124;54;19943;-79
2023/07/18 01:53:55;;;;;;;;;;;;;;;19.22;53.89;100377.41;1087160;54;19942;-78
2023/07/18 01:54:58;;;;;;;;;;;;;;;19.18;54.46;100374.22;1086813;47;20686;-79
2023/07/18 01:55:59;;;;;;;;;;;;;;;19.21;53.52;100374.88;1086849;47;19942;-78
2023/07/18 01:57:04;;;;;;;;;;;;;;;19.21;53.96;100373.03;1087009;54;19966;-79
2023/07/18 01:58:05;;;;;;;;;;;;;;;19.13;54.65;100373.13;1086871;47;20014;-80
2023/07/18 01:59:09;;;;;;;;;;;;;;;19.10;54.61;100377.06;1086977;47;19950;-78
2023/07/18 02:00:18;;;;;;;;;;;;;;;19.13;54.12;100368.56;1086899;54;19975;-79
2023/07/18 02:01:21;;;;;;;;;;;;;;;19.14;53.87;100378.38;1087107;54;19952;-79
2023/07/18 02:02:23;;;;;;;;;;;;;;;19.15;53.61;100369.22;1086923;47;19943;-79
2023/07/18 02:03:27;;;;;;;;;;;;;;;19.10;54.26;100371.66;1087148;54;19947;-79
2023/07/18 02:04:27;;;;;;;;;;;;;;;19.15;53.53;100371.91;1087041;47;19943;-79
2023/07/18 02:05:32;;;;;;;;;;;;;;;19.17;53.95;100375.28;1087068;54;19945;-79
2023/07/18 02:06:33;;;;;;;;;;;;;;;19.19;54.08;100372.38;1087014;54;19949;-79
2023/07/18 02:07:34;;;;;;;;;;;;;;;19.19;54.19;100369.66;1086972;54;19948;-79
2023/07/18 02:08:40;;;;;;;;;;;;;;;19.15;54.40;100371.91;1086932;54;19951;-79
2023/07/18 02:09:41;;;;;;;;;;;;;;;19.09;55.30;100378.09;1087243;54;19942;-79
2023/07/18 02:10:45;;;;;;;;;;;;;;;19.01;55.71;100372.81;1087305;54;19943;-79
2023/07/18 02:11:46;;;;;;;;;;;;;;;18.95;55.83;100376.28;1087339;54;19973;-79
2023/07/18 02:12:50;;;;;;;;;;;;;;;18.82;56.38;100371.53;1086945;54;19949;-79
2023/07/18 02:13:51;;;;;;;;;;;;;;;18.74;56.21;100375.19;1088450;39;20213;-79
2023/07/18 02:14:54;;;;;;;;;;;;;;;18.66;56.67;100369.88;1086833;54;19942;-79
2023/07/18 02:15:55;;;;;;;;;;;;;;;18.69;56.34;100375.75;1087216;54;19951;-79
2023/07/18 02:16:59;;;;;;;;;;;;;;;18.70;56.95;100376.63;1087150;54;19942;-79
2023/07/18 02:18:00;;;;;;;;;;;;;;;18.74;56.06;100369.78;1087230;54;19942;-79
2023/07/18 02:19:03;;;;;;;;;;;;;;;18.76;55.87;100378.56;1087072;54;19955;-79
2023/07/18 02:20:05;;;;;;;;;;;;;;;18.68;56.41;100379.50;1087362;54;19942;-79
2023/07/18 02:21:09;;;;;;;;;;;;;;;18.70;56.08;100374.72;1086913;47;19965;-79
2023/07/18 02:22:11;;;;;;;;;;;;;;;18.62;55.31;100377.56;1086977;54;19982;-79
2023/07/18 02:23:14;;;;;;;;;;;;;;;18.60;55.44;100386.91;1087247;54;19954;-79
2023/07/18 02:24:17;;;;;;;;;;;;;;;18.56;55.45;100375.63;1087210;54;19965;-78
2023/07/18 02:25:21;;;;;;;;;;;;;;;18.42;55.22;100377.28;1086948;47;19943;-79
2023/07/18 02:26:21;;;;;;;;;;;;;;;18.30;55.80;100385.06;1087029;54;19942;-79
2023/07/18 02:27:25;;;;;;;;;;;;;;;18.23;55.42;100387.66;1087246;54;19966;-79
2023/07/18 02:28:25;;;;;;;;;;;;;;;18.19;55.62;100386.38;1086995;54;20388;-79
2023/07/18 02:29:29;;;;;;;;;;;;;;;18.15;56.18;100379.63;1087129;54;19942;-79
2023/07/18 02:30:29;;;;;;;;;;;;;;;18.14;55.83;100383.38;1087131;47;19942;-79
2023/07/18 02:31:33;;;;;;;;;;;;;;;18.15;55.91;100385.06;1087048;54;19938;-79
2023/07/18 02:32:34;;;;;;;;;;;;;;;18.13;55.91;100380.84;1086995;54;19966;-79
2023/07/18 02:33:38;;;;;;;;;;;;;;;18.14;55.88;100387.94;1087269;54;19957;-79
2023/07/18 02:34:39;;;;;;;;;;;;;;;18.17;56.36;100383.00;1087326;54;19973;-80
2023/07/18 02:35:44;;;;;;;;;;;;;;;18.21;56.09;100389.75;1087292;54;19949;-79
2023/07/18 02:36:45;;;;;;;;;;;;;;;18.27;55.74;100390.84;1087338;54;19942;-80
2023/07/18 02:37:48;;;;;;;;;;;;;;;18.26;56.36;100383.75;1087496;54;19954;-82
2023/07/18 02:38:49;;;;;;;;;;;;;;;18.33;56.21;100386.53;1087598;54;19966;-81
2023/07/18 02:39:53;;;;;;;;;;;;;;;18.33;56.28;100375.72;1087795;54;19962;-79
2023/07/18 02:40:56;;;;;;;;;;;;;;;18.35;56.19;100382.63;1087408;54;19943;-82
2023/07/18 02:41:57;;;;;;;;;;;;;;;18.35;57.00;100381.78;1087920;54;20027;-79
2023/07/18 02:43:02;;;;;;;;;;;;;;;18.38;56.21;100378.72;1088642;39;20215;-80
2023/07/18 02:44:04;;;;;;;;;;;;;;;18.40;56.08;100382.91;1087372;54;19943;-79
2023/07/18 02:45:06;;;;;;;;;;;;;;;18.43;56.70;100387.09;1087289;47;19963;-78
2023/07/18 02:46:09;;;;;;;;;;;;;;;18.44;56.39;100386.06;1087028;47;19938;-78
2023/07/18 02:47:11;;;;;;;;;;;;;;;18.48;56.08;100376.56;1087134;46;19962;-78
2023/07/18 02:48:14;;;;;;;;;;;;;;;18.48;56.30;100381.97;1087072;47;19939;-79
2023/07/18 02:49:15;;;;;;;;;;;;;;;18.35;57.43;100393.47;1087198;54;19955;-79
2023/07/18 02:50:19;;;;;;;;;;;;;;;18.41;57.25;100383.75;1087169;54;19949;-80
2023/07/18 02:51:19;;;;;;;;;;;;;;;18.43;57.15;100378.16;1087238;54;19965;-79
2023/07/18 02:52:23;;;;;;;;;;;;;;;18.40;57.63;100377.50;1087218;54;19949;-79
2023/07/18 02:53:24;;;;;;;;;;;;;;;18.40;57.51;100379.38;1087258;47;19962;-80
2023/07/18 02:54:25;;;;;;;;;;;;;;;18.33;57.81;100381.97;1087069;54;19949;-79
2023/07/18 02:55:31;;;;;;;;;;;;;;;18.33;57.63;100383.84;1087127;47;20036;-79
2023/07/18 02:56:34;;;;;;;;;;;;;;;18.30;58.07;100385.06;1087091;46;19973;-80
2023/07/18 02:57:38;;;;;;;;;;;;;;;18.28;57.71;100389.81;1087042;54;19973;-79
2023/07/18 02:58:38;;;;;;;;;;;;;;;18.23;58.08;100384.94;1087071;47;19966;-79
2023/07/18 02:59:42;;;;;;;;;;;;;;;18.17;58.27;100380.31;1087104;47;19939;-79
2023/07/18 03:00:43;;;;;;;;;;;;;;;18.21;58.16;100380.75;1087093;54;19942;-80
2023/07/18 03:01:46;;;;;;;;;;;;;;;18.23;57.76;100390.38;1086998;54;19949;-79
2023/07/18 03:02:48;;;;;;;;;;;;;;;18.23;58.34;100387.66;1087037;54;20338;-79
2023/07/18 03:03:51;;;;;;;;;;;;;;;18.20;58.13;100385.34;1087234;47;19949;-80
2023/07/18 03:04:52;;;;;;;;;;;;;;;18.16;58.18;100389.44;1087127;47;19962;-79
2023/07/18 03:05:56;;;;;;;;;;;;;;;18.17;57.74;100390.28;1087063;54;20317;-79
2023/07/18 03:06:57;;;;;;;;;;;;;;;18.11;58.34;100386.47;1087082;54;19969;-79
2023/07/18 03:08:00;;;;;;;;;;;;;;;18.08;58.26;100386.84;1089019;39;20224;-79
2023/07/18 03:09:02;;;;;;;;;;;;;;;18.03;58.66;100391.97;1086972;47;19949;-79
2023/07/18 03:10:07;;;;;;;;;;;;;;;18.06;58.76;100397.00;1087084;47;19943;-79
2023/07/18 03:11:11;;;;;;;;;;;;;;;18.07;57.98;100379.72;1087052;54;19942;-79
2023/07/18 03:12:14;;;;;;;;;;;;;;;18.12;58.13;100384.59;1087102;54;20054;-80
2023/07/18 03:13:15;;;;;;;;;;;;;;;18.08;58.53;100382.28;1087188;47;19967;-79
2023/07/18 03:14:19;;;;;;;;;;;;;;;18.12;58.04;100380.03;1086893;47;19942;-79
2023/07/18 03:15:20;;;;;;;;;;;;;;;18.13;58.04;100379.00;1087128;54;19950;-80
2023/07/18 03:16:23;;;;;;;;;;;;;;;18.17;57.67;100383.00;1087161;47;19954;-79
2023/07/18 03:17:24;;;;;;;;;;;;;;;18.17;58.00;100384.88;1087036;54;19950;-79
2023/07/18 03:18:27;;;;;;;;;;;;;;;18.20;58.09;100385.34;1087273;47;19942;-79
2023/07/18 03:19:31;;;;;;;;;;;;;;;18.20;57.84;100395.31;1087250;54;19966;-79
2023/07/18 03:20:35;;;;;;;;;;;;;;;18.18;58.02;100384.69;1087243;47;19942;-79
2023/07/18 03:21:35;;;;;;;;;;;;;;;18.17;58.32;100385.72;1088663;39;20303;-79
2023/07/18 03:22:37;;;;;;;;;;;;;;;18.18;58.05;100390.09;1087230;54;19949;-79
2023/07/18 03:23:41;;;;;;;;;;;;;;;18.17;58.27;100391.13;1087185;47;19951;-79
2023/07/18 03:24:41;;;;;;;;;;;;;;;18.12;58.66;100381.88;1087350;54;20031;-80
2023/07/18 03:25:45;;;;;;;;;;;;;;;18.13;58.09;100386.28;1087430;54;19950;-79
2023/07/18 03:26:48;;;;;;;;;;;;;;;18.13;57.45;100386.28;1088283;39;20259;-80
2023/07/18 03:27:51;;;;;;;;;;;;;;;18.13;58.05;100395.25;1087207;47;19950;-80
2023/07/18 03:28:52;;;;;;;;;;;;;;;18.15;58.24;100386.94;1087321;54;19942;-80
2023/07/18 03:29:55;;;;;;;;;;;;;;;18.14;57.97;100386.06;1087202;46;19966;-79
2023/07/18 03:30:56;;;;;;;;;;;;;;;18.12;58.18;100384.59;1087263;47;19949;-79
2023/07/18 03:31:59;;;;;;;;;;;;;;;18.12;57.78;100390.84;1087213;54;19981;-80
2023/07/18 03:33:00;;;;;;;;;;;;;;;18.12;57.73;100388.16;1087536;54;19950;-79
2023/07/18 03:34:04;;;;;;;;;;;;;;;18.09;58.36;100391.22;1087208;47;19951;-80
2023/07/18 03:35:06;;;;;;;;;;;;;;;18.12;58.12;100390.84;1087254;47;19942;-79
2023/07/18 03:36:09;;;;;;;;;;;;;;;18.12;58.25;100396.25;1087263;54;20013;-80
2023/07/18 03:37:12;;;;;;;;;;;;;;;18.12;57.85;100393.56;1087461;54;19973;-80
2023/07/18 03:38:13;;;;;;;;;;;;;;;18.11;58.38;100397.28;1087146;54;19965;-79
2023/07/18 03:39:15;;;;;;;;;;;;;;;18.13;57.95;100397.94;1087405;54;19967;-80
2023/07/18 03:40:19;;;;;;;;;;;;;;;18.16;57.91;100388.63;1087455;54;19942;-80
2023/07/18 03:41:20;;;;;;;;;;;;;;;18.11;58.19;100404.53;1087127;47;19966;-79
2023/07/18 03:42:26;;;;;;;;;;;;;;;18.09;58.44;100400.16;1086995;54;19943;-80
2023/07/18 03:43:27;;;;;;;;;;;;;;;18.08;58.29;100395.81;1087505;54;19954;-80
2023/07/18 03:44:30;;;;;;;;;;;;;;;18.10;57.93;100390.19;1087508;54;19950;-79
2023/07/18 03:45:31;;;;;;;;;;;;;;;18.10;58.10;100398.31;1087117;54;19966;-79
2023/07/18 03:46:34;;;;;;;;;;;;;;;18.07;57.94;100399.53;1087482;54;19943;-79
2023/07/18 03:47:36;;;;;;;;;;;;;;;18.08;57.96;100401.22;1087434;54;19943;-79
2023/07/18 03:48:39;;;;;;;;;;;;;;;18.02;58.35;100393.00;1087324;54;19958;-79
2023/07/18 03:49:40;;;;;;;;;;;;;;;17.96;58.33;100399.09;1087493;54;20002;-79
2023/07/18 03:50:43;;;;;;;;;;;;;;;17.95;58.36;100398.25;1087529;54;19942;-79
2023/07/18 03:51:44;;;;;;;;;;;;;;;17.85;58.80;100395.84;1087220;47;19943;-79
2023/07/18 03:52:48;;;;;;;;;;;;;;;17.86;58.52;100402.91;1087265;54;19943;-80
2023/07/18 03:53:50;;;;;;;;;;;;;;;17.87;58.53;100390.25;1087239;47;19977;-80
2023/07/18 03:54:54;;;;;;;;;;;;;;;17.82;58.96;100388.09;1087312;46;19963;-80
2023/07/18 03:56:01;;;;;;;;;;;;;;;17.82;59.01;100398.03;1087319;54;19954;-80
2023/07/18 03:57:04;;;;;;;;;;;;;;;17.86;58.89;100400.19;1087538;54;19943;-80
2023/07/18 03:58:07;;;;;;;;;;;;;;;17.89;59.00;100390.91;1087197;54;19949;-79
2023/07/18 03:59:11;;;;;;;;;;;;;;;17.87;59.10;100388.34;1087189;54;19943;-79
2023/07/18 04:00:17;;;;;;;;;;;;;;;17.88;58.82;100392.75;1087344;54;20534;-79
2023/07/18 04:01:20;;;;;;;;;;;;;;;17.94;58.78;100388.47;1087232;47;19951;-79
2023/07/18 04:02:21;;;;;;;;;;;;;;;17.86;59.43;100388.56;1087207;47;19966;-80
2023/07/18 04:03:24;;;;;;;;;;;;;;;17.89;59.18;100382.78;1087287;54;20022;-78
2023/07/18 04:04:25;;;;;;;;;;;;;;;17.91;58.65;100388.81;1087193;54;19938;-78
2023/07/18 04:05:28;;;;;;;;;;;;;;;17.89;58.72;100388.19;1087239;54;19943;-79
2023/07/18 04:06:29;;;;;;;;;;;;;;;17.90;59.02;100385.28;1087175;47;20614;-79
2023/07/18 04:07:32;;;;;;;;;;;;;;;17.89;58.82;100385.50;1087192;54;19943;-79
2023/07/18 04:08:33;;;;;;;;;;;;;;;17.92;58.95;100390.50;1087445;54;20014;-79
2023/07/18 04:09:34;;;;;;;;;;;;;;;17.93;58.95;100387.63;1087491;54;19946;-80
2023/07/18 04:10:37;;;;;;;;;;;;;;;17.96;58.54;100383.75;1087321;46;19938;-79
2023/07/18 04:11:39;;;;;;;;;;;;;;;17.93;58.77;100384.94;1087295;54;19949;-80
2023/07/18 04:12:40;;;;;;;;;;;;;;;17.86;59.12;100381.25;1087472;54;19998;-79
2023/07/18 04:13:46;;;;;;;;;;;;;;;17.90;58.83;100384.47;1087151;47;19954;-79
2023/07/18 04:14:46;;;;;;;;;;;;;;;17.93;58.64;100381.38;1087255;54;19943;-79
2023/07/18 04:15:50;;;;;;;;;;;;;;;17.95;58.58;100381.22;1087415;54;19946;-78
2023/07/18 04:16:51;;;;;;;;;;;;;;;17.96;58.40;100378.34;1087452;54;19943;-79
2023/07/18 04:17:54;;;;;;;;;;;;;;;17.96;58.27;100377.44;1087114;54;19946;-78
2023/07/18 04:18:55;;;;;;;;;;;;;;;17.97;58.44;100373.75;1087205;47;19942;-78
2023/07/18 04:20:00;;;;;;;;;;;;;;;17.97;59.17;100380.03;1087244;54;19942;-78
2023/07/18 04:21:01;;;;;;;;;;;;;;;17.98;58.68;100372.72;1087425;54;19943;-78
2023/07/18 04:22:04;;;;;;;;;;;;;;;17.98;58.84;100368.19;1087338;54;19966;-78
2023/07/18 04:23:05;;;;;;;;;;;;;;;17.98;58.89;100375.44;1087539;54;20726;-79
2023/07/18 04:24:08;;;;;;;;;;;;;;;17.91;59.19;100373.47;1087395;54;19966;-78
2023/07/18 04:25:09;;;;;;;;;;;;;;;17.88;59.73;100373.81;1087428;54;19957;-78
2023/07/18 04:26:12;;;;;;;;;;;;;;;17.90;59.15;100370.94;1087448;54;20949;-78
2023/07/18 04:27:13;;;;;;;;;;;;;;;17.92;59.21;100367.03;1087408;54;19947;-78
2023/07/18 04:28:16;;;;;;;;;;;;;;;17.91;58.36;100373.47;1087357;54;19949;-78
2023/07/18 04:29:20;;;;;;;;;;;;;;;17.81;58.59;100370.19;1087474;54;19950;-78
2023/07/18 04:30:24;;;;;;;;;;;;;;;17.69;59.05;100372.50;1087430;54;19943;-77
2023/07/18 04:31:25;;;;;;;;;;;;;;;17.68;58.93;100380.78;1087486;54;19942;-78
2023/07/18 04:32:28;;;;;;;;;;;;;;;17.67;58.77;100369.13;1087357;54;19947;-79
2023/07/18 04:33:34;;;;;;;;;;;;;;;17.73;58.62;100372.97;1087517;54;19943;-78
2023/07/18 04:34:45;;;;;;;;;;;;;;;17.67;58.54;100369.13;1086998;47;19950;-80
2023/07/18 04:35:53;;;;;;;;;;;;;;;17.59;58.93;100372.75;1087149;47;19945;-79
2023/07/18 04:37:20;;;;;;;;;;;;;;;17.68;58.72;100372.66;1086952;47;19938;-79
2023/07/18 04:41:40;;;;;;;;;;;;;;;17.85;58.21;100359.81;1086832;54;19935;-80
2023/07/18 04:42:42;;;;;;;;;;;;;;;17.89;58.62;100359.28;1086953;54;19943;-79
2023/07/18 04:43:45;;;;;;;;;;;;;;;17.96;57.73;100363.94;1086960;54;19949;-79
2023/07/18 04:44:48;;;;;;;;;;;;;;;17.99;57.83;100361.75;1086985;54;20335;-79
2023/07/18 04:45:49;;;;;;;;;;;;;;;18.04;57.84;100361.19;1087052;54;19958;-78
2023/07/18 04:46:53;;;;;;;;;;;;;;;18.07;57.16;100358.94;1086898;47;20006;-78
2023/07/18 04:47:54;;;;;;;;;;;;;;;18.11;56.92;100356.72;1086921;47;19984;-79
2023/07/18 04:48:58;;;;;;;;;;;;;;;18.15;56.75;100355.28;1086972;54;19975;-79
2023/07/18 04:49:59;;;;;;;;;;;;;;;18.13;56.19;100357.38;1087092;54;19950;-79
2023/07/18 04:51:03;;;;;;;;;;;;;;;18.07;56.04;100355.38;1087102;54;19923;-79
2023/07/18 04:52:04;;;;;;;;;;;;;;;18.10;56.17;100352.31;1087012;54;19943;-80
2023/07/18 04:53:07;;;;;;;;;;;;;;;18.02;56.15;100355.13;1086942;54;19970;-81
2023/07/18 04:54:08;;;;;;;;;;;;;;;17.97;56.48;100344.00;1087053;47;19954;-79
2023/07/18 04:55:12;;;;;;;;;;;;;;;18.03;56.77;100346.00;1086950;54;20002;-79
2023/07/18 04:56:12;;;;;;;;;;;;;;;18.10;56.43;100346.91;1087023;47;19939;-78
2023/07/18 04:57:17;;;;;;;;;;;;;;;18.15;56.30;100344.47;1086884;54;19942;-79
2023/07/18 04:58:18;;;;;;;;;;;;;;;18.15;56.16;100349.06;1087053;54;19942;-80
2023/07/18 04:59:22;;;;;;;;;;;;;;;18.21;55.60;100348.28;1087042;46;19938;-79
2023/07/18 05:00:25;;;;;;;;;;;;;;;18.26;55.88;100347.72;1087099;54;19950;-80
2023/07/18 05:01:29;;;;;;;;;;;;;;;18.32;55.48;100347.81;1087059;54;19942;-79
2023/07/18 05:02:30;;;;;;;;;;;;;;;18.35;55.51;100349.31;1086973;54;19942;-79
2023/07/18 05:03:33;;;;;;;;;;;;;;;18.41;55.00;100351.28;1086940;54;20020;-79
2023/07/18 05:04:34;;;;;;;;;;;;;;;18.45;55.05;100349.84;1087032;54;20005;-79
2023/07/18 05:05:37;;;;;;;;;;;;;;;18.40;55.38;100344.19;1086981;47;19943;-80
2023/07/18 05:06:38;;;;;;;;;;;;;;;18.23;55.07;100347.06;1087107;54;19966;-79
2023/07/18 05:07:44;;;;;;;;;;;;;;;18.07;55.51;100349.97;1086964;54;19966;-79
2023/07/18 05:08:45;;;;;;;;;;;;;;;18.13;55.47;100338.44;1087084;54;20017;-80
2023/07/18 05:09:48;;;;;;;;;;;;;;;18.00;55.82;100347.19;1087073;53;19946;-79
2023/07/18 05:10:50;;;;;;;;;;;;;;;18.00;55.79;100346.34;1087286;39;20133;-79
2023/07/18 05:11:53;;;;;;;;;;;;;;;18.04;55.86;100340.38;1086990;54;19942;-78
2023/07/18 05:12:55;;;;;;;;;;;;;;;18.05;55.85;100349.31;1087065;54;19942;-80
2023/07/18 05:13:58;;;;;;;;;;;;;;;18.14;55.59;100347.38;1087083;54;19946;-79
2023/07/18 05:15:00;;;;;;;;;;;;;;;18.21;55.41;100338.34;1086989;54;19938;-80
2023/07/18 05:16:06;;;;;;;;;;;;;;;18.31;54.95;100337.19;1087290;54;20013;-79
2023/07/18 05:17:07;;;;;;;;;;;;;;;18.24;55.36;100343.34;1086889;54;19949;-78
2023/07/18 05:18:11;;;;;;;;;;;;;;;18.07;55.20;100336.47;1087066;54;19949;-80
2023/07/18 05:19:12;;;;;;;;;;;;;;;18.15;55.25;100341.75;1087164;47;19962;-79
2023/07/18 05:31:14;;;;;;;;;;;;;;;18.85;53.62;100344.91;1087195;54;19947;-80
2023/07/18 05:32:16;;;;;;;;;;;;;;;18.77;53.65;100346.88;1087149;54;20691;-80
2023/07/18 05:33:19;;;;;;;;;;;;;;;18.88;53.22;100348.28;1087010;54;19950;-79
2023/07/18 05:34:22;;;;;;;;;;;;;;;18.82;52.55;100341.75;1087418;54;19943;-79
2023/07/18 05:35:26;;;;;;;;;;;;;;;18.78;52.41;100337.72;1087464;54;19943;-82
2023/07/18 05:36:27;;;;;;;;;;;;;;;18.75;52.44;100347.09;1087161;54;19955;-79
2023/07/18 05:37:31;;;;;;;;;;;;;;;18.86;52.26;100337.59;1087290;54;19942;-79
2023/07/18 05:38:31;;;;;;;;;;;;;;;18.95;52.10;100338.38;1087307;54;19943;-80
2023/07/18 05:39:35;;;;;;;;;;;;;;;19.02;52.03;100336.56;1087874;39;20245;-78
2023/07/18 05:40:35;;;;;;;;;;;;;;;19.09;51.58;100339.34;1087174;54;19943;-79
2023/07/18 05:41:41;;;;;;;;;;;;;;;19.16;51.64;100338.38;1087153;54;19946;-81
2023/07/18 05:42:42;;;;;;;;;;;;;;;19.21;51.65;100334.22;1087324;54;20006;-81
2023/07/18 05:43:45;;;;;;;;;;;;;;;19.24;50.75;100331.13;1087366;54;19942;-80
2023/07/18 05:44:46;;;;;;;;;;;;;;;19.27;50.39;100333.47;1087333;54;19943;-81
2023/07/18 05:45:49;;;;;;;;;;;;;;;19.31;50.22;100342.88;1087454;54;19951;-82
2023/07/18 05:46:53;;;;;;;;;;;;;;;19.25;50.25;100330.09;1087319;54;19943;-78
2023/07/18 08:07:43;;;;;;;;;;;;;;;25.45;36.39;100169.72;1086516;54;19939;-86
2023/07/18 08:08:46;;;;;;;;;;;;;;;25.70;35.45;100178.47;1087152;47;19943;-87
2023/07/18 08:09:50;;;;;;;;;;;;;;;25.68;35.58;100169.69;1087134;47;19943;-87
2023/07/18 08:10:51;;;;;;;;;;;;;;;25.60;35.46;100178.25;1087197;54;20713;-86
2023/07/18 08:11:54;;;;;;;;;;;;;;;25.83;35.30;100176.53;1087536;54;19950;-86
2023/07/18 08:12:58;;;;;;;;;;;;;;;25.89;35.28;100170.06;1087463;54;19969;-83
2023/07/18 08:14:02;;;;;;;;;;;;;;;25.83;35.23;100173.81;1087265;47;19966;-83
2023/07/18 08:16:31;;;;;;;;;;;;;;;25.25;35.49;100164.63;1088143;39;20554;-85
2023/07/18 08:17:31;;;;;;;;;;;;;;;25.45;35.49;100158.78;1087333;54;19966;-82
2023/07/18 08:18:36;;;;;;;;;;;;;;;25.76;35.07;100159.44;1087141;46;19966;-83
2023/07/18 08:19:37;;;;;;;;;;;;;;;25.92;34.56;100158.66;1087273;54;19943;-85
2023/07/18 08:20:40;;;;;;;;;;;;;;;26.11;34.48;100155.75;1087278;47;19973;-84
2023/07/18 08:21:41;;;;;;;;;;;;;;;26.05;34.50;100154.78;1087095;46;19943;-82
2023/07/18 08:22:46;;;;;;;;;;;;;;;25.92;34.73;100155.09;1087168;46;20717;-86
2023/07/18 08:23:49;;;;;;;;;;;;;;;25.69;34.88;100159.56;1087317;54;20006;-83
2023/07/18 08:24:52;;;;;;;;;;;;;;;25.50;35.17;100158.91;1087197;47;19962;-86
2023/07/18 08:25:54;;;;;;;;;;;;;;;25.37;34.77;100171.75;1087127;47;19939;-84
2023/07/18 08:27:06;;;;;;;;;;;;;;;25.57;35.24;100165.06;1087308;47;19943;-85
2023/07/18 08:28:07;;;;;;;;;;;;;;;25.82;34.50;100150.22;1087171;46;19943;-84
2023/07/18 08:29:10;;;;;;;;;;;;;;;26.08;34.58;100150.72;1087263;47;19943;-85
2023/07/18 08:30:12;;;;;;;;;;;;;;;26.35;34.04;100153.72;1087221;47;20077;-84
2023/07/18 08:31:15;;;;;;;;;;;;;;;26.55;33.83;100139.50;1087281;54;19947;-87
2023/07/18 08:32:16;;;;;;;;;;;;;;;26.72;34.04;100145.00;1087257;54;19973;-84
2023/07/18 08:33:19;;;;;;;;;;;;;;;26.90;32.95;100143.94;1087161;47;19942;-84
2023/07/18 08:34:22;;;;;;;;;;;;;;;27.01;33.22;100135.88;1087478;54;19942;-83
2023/07/18 08:35:23;;;;;;;;;;;;;;;26.96;32.88;100141.28;1087644;47;19965;-85
2023/07/18 08:36:27;;;;;;;;;;;;;;;26.65;33.27;100138.00;1087704;54;19926;-86
2023/07/18 08:37:28;;;;;;;;;;;;;;;26.98;33.24;100141.84;1088325;54;19927;-85
2023/07/18 08:38:31;;;;;;;;;;;;;;;27.07;32.88;100143.09;1088145;54;19942;-87